createdAt,value
2022-11-28T00:00:57.157Z,83.10
2022-11-28T00:03:02.963Z,82.00
2022-11-28T00:05:09.493Z,81.90
2022-11-28T00:07:15.979Z,81.60
2022-11-28T00:09:24.252Z,82.20
2022-11-28T00:11:29.912Z,82.30
2022-11-28T00:13:37.582Z,82.10
2022-11-28T00:15:43.789Z,82.20
2022-11-28T00:17:48.824Z,82.60
2022-11-28T00:19:54.107Z,82.80
2022-11-28T00:21:59.120Z,83.10
2022-11-28T00:24:04.774Z,83.10
2022-11-28T00:26:12.964Z,82.60
2022-11-28T00:28:18.489Z,82.80
2022-11-28T00:30:26.430Z,82.50
2022-11-28T00:32:31.835Z,82.70
2022-11-28T00:34:36.844Z,82.90
2022-11-28T00:36:42.049Z,83.40
2022-11-28T00:38:47.945Z,83.50
2022-11-28T00:41:02.566Z,83.60
2022-11-28T00:43:07.657Z,83.50
2022-11-28T00:45:13.295Z,83.40
2022-11-28T00:47:20.902Z,83.40
2022-11-28T00:49:26.362Z,83.40
2022-11-28T00:51:36.269Z,83.70
2022-11-28T00:53:43.013Z,83.80
2022-11-28T00:55:48.199Z,83.60
2022-11-28T00:57:55.596Z,84.20
2022-11-28T01:00:00.655Z,84.20
2022-11-28T01:02:05.903Z,84.40
2022-11-28T01:04:17.414Z,84.10
2022-11-28T01:06:29.022Z,84.20
2022-11-28T01:08:35.017Z,84.40
2022-11-28T01:10:43.570Z,84.50
2022-11-28T01:12:48.940Z,84.50
2022-11-28T01:14:54.279Z,84.70
2022-11-28T01:16:59.480Z,84.60
2022-11-28T01:19:04.546Z,84.60
2022-11-28T01:21:12.701Z,84.70
2022-11-28T01:23:20.597Z,84.80
2022-11-28T01:25:25.619Z,84.40
2022-11-28T01:27:30.663Z,84.60
2022-11-28T01:29:36.142Z,84.80
2022-11-28T01:31:41.901Z,85.10
2022-11-28T01:33:47.455Z,85.20
2022-11-28T01:36:02.042Z,84.90
2022-11-28T01:38:09.669Z,85.10
2022-11-28T01:40:16.626Z,85.20
2022-11-28T01:42:22.836Z,85.10
2022-11-28T01:45:07.782Z,85.40
2022-11-28T01:47:12.933Z,85.40
2022-11-28T01:49:25.399Z,85.70
2022-11-28T01:51:32.490Z,85.60
2022-11-28T01:53:45.677Z,85.70
2022-11-28T01:56:04.577Z,85.70
2022-11-28T01:58:10.011Z,84.90
2022-11-28T02:00:20.308Z,85.00
2022-11-28T02:02:32.468Z,85.40
2022-11-28T02:04:38.846Z,85.70
2022-11-28T02:06:45.212Z,85.20
2022-11-28T02:08:55.132Z,85.30
2022-11-28T02:11:31.080Z,85.40
2022-11-28T02:13:49.362Z,85.40
2022-11-28T02:16:23.067Z,85.50
2022-11-28T02:18:51.729Z,85.40
2022-11-28T02:21:31.479Z,85.10
2022-11-28T02:24:08.515Z,84.80
2022-11-28T02:26:57.022Z,85.20
2022-11-28T02:29:56.076Z,85.10
2022-11-28T02:32:25.380Z,85.70
2022-11-28T02:34:45.643Z,85.50
2022-11-28T02:36:58.932Z,85.60
2022-11-28T02:39:15.096Z,85.60
2022-11-28T02:41:31.173Z,85.90
2022-11-28T02:43:45.207Z,86.20
2022-11-28T02:46:00.713Z,86.50
2022-11-28T02:48:15.444Z,86.90
2022-11-28T02:50:27.444Z,86.90
2022-11-28T02:52:40.509Z,86.60
2022-11-28T02:54:46.886Z,86.70
2022-11-28T02:56:52.705Z,86.90
2022-11-28T02:58:58.294Z,87.00
2022-11-28T03:01:03.716Z,87.40
2022-11-28T03:03:44.363Z,87.10
2022-11-28T03:05:56.281Z,87.60
2022-11-28T03:08:14.187Z,87.60
2022-11-28T03:10:32.574Z,87.70
2022-11-28T03:12:53.302Z,87.30
2022-11-28T03:15:01.773Z,87.40
2022-11-28T03:17:17.110Z,87.70
2022-11-28T03:19:31.180Z,87.60
2022-11-28T03:21:43.559Z,87.70
2022-11-28T03:23:54.803Z,87.80
2022-11-28T03:26:03.112Z,87.70
2022-11-28T03:28:14.313Z,87.60
2022-11-28T03:30:28.519Z,87.30
2022-11-28T03:32:38.427Z,87.40
2022-11-28T03:34:50.440Z,86.50
2022-11-28T03:37:02.417Z,86.10
2022-11-28T03:39:14.332Z,86.20
2022-11-28T03:41:28.243Z,85.80
2022-11-28T03:43:41.324Z,85.20
2022-11-28T03:45:51.084Z,85.30
2022-11-28T03:48:01.337Z,85.10
2022-11-28T03:50:16.751Z,85.20
2022-11-28T03:52:28.309Z,85.20
2022-11-28T03:54:49.989Z,84.30
2022-11-28T03:57:04.034Z,84.40
2022-11-28T03:59:16.855Z,84.70
2022-11-28T04:01:34.831Z,85.00
2022-11-28T04:03:49.080Z,84.60
2022-11-28T04:06:05.014Z,84.80
2022-11-28T04:08:17.116Z,84.10
2022-11-28T04:10:27.833Z,83.70
2022-11-28T04:12:48.644Z,83.90
2022-11-28T04:14:59.071Z,84.70
2022-11-28T04:17:16.167Z,84.40
2022-11-28T04:19:30.949Z,85.00
2022-11-28T04:21:46.262Z,84.20
2022-11-28T04:23:54.913Z,84.30
2022-11-28T04:26:06.037Z,84.10
2022-11-28T04:28:15.833Z,84.10
2022-11-28T04:30:21.353Z,84.40
2022-11-28T04:32:29.529Z,84.40
2022-11-28T04:34:37.543Z,84.80
2022-11-28T04:36:47.117Z,84.90
2022-11-28T04:38:56.421Z,85.20
2022-11-28T04:41:11.400Z,85.10
2022-11-28T04:43:23.646Z,85.30
2022-11-28T04:45:34.932Z,85.70
2022-11-28T04:47:40.045Z,85.60
2022-11-28T04:49:45.517Z,85.70
2022-11-28T04:52:01.953Z,85.60
2022-11-28T04:54:14.983Z,85.80
2022-11-28T04:56:26.804Z,85.60
2022-11-28T04:58:38.574Z,85.70
2022-11-28T05:00:45.635Z,85.10
2022-11-28T05:02:55.611Z,84.60
2022-11-28T05:05:01.125Z,84.60
2022-11-28T05:07:11.120Z,84.80
2022-11-28T05:09:16.746Z,84.70
2022-11-28T05:11:21.851Z,84.80
2022-11-28T05:13:27.257Z,84.40
2022-11-28T05:15:32.276Z,83.70
2022-11-28T05:17:42.240Z,84.30
2022-11-28T05:19:48.716Z,84.40
2022-11-28T05:21:55.004Z,84.70
2022-11-28T05:24:02.769Z,84.30
2022-11-28T05:26:09.833Z,84.20
2022-11-28T05:28:15.206Z,84.40
2022-11-28T05:30:20.628Z,84.00
2022-11-28T05:32:26.022Z,83.90
2022-11-28T05:34:31.209Z,84.00
2022-11-28T05:36:36.215Z,83.80
2022-11-28T05:38:41.856Z,83.80
2022-11-28T05:40:49.500Z,83.40
2022-11-28T05:42:54.498Z,83.60
2022-11-28T05:44:59.575Z,83.40
2022-11-28T05:47:04.642Z,83.30
2022-11-28T05:49:09.660Z,83.30
2022-11-28T05:51:15.212Z,83.30
2022-11-28T05:53:21.461Z,83.30
2022-11-28T05:55:26.497Z,83.20
2022-11-28T05:57:35.012Z,83.20
2022-11-28T05:59:40.187Z,83.50
2022-11-28T06:01:45.359Z,83.70
2022-11-28T06:03:51.955Z,84.00
2022-11-28T06:05:57.604Z,84.00
2022-11-28T06:08:02.809Z,84.30
2022-11-28T06:10:10.493Z,84.60
2022-11-28T06:12:15.515Z,84.70
2022-11-28T06:14:23.109Z,84.70
2022-11-28T06:16:31.319Z,84.80
2022-11-28T06:18:36.378Z,85.20
2022-11-28T06:20:41.365Z,85.00
2022-11-28T06:22:48.552Z,85.10
2022-11-28T06:24:53.628Z,85.30
2022-11-28T06:26:58.680Z,85.00
2022-11-28T06:29:04.355Z,85.00
2022-11-28T06:31:17.930Z,85.10
2022-11-28T06:33:22.946Z,85.20
2022-11-28T06:35:28.369Z,85.20
2022-11-28T06:37:33.358Z,85.10
2022-11-28T06:39:38.360Z,85.30
2022-11-28T06:41:43.368Z,85.30
2022-11-28T06:43:48.347Z,85.40
2022-11-28T06:45:53.481Z,85.60
2022-11-28T06:48:01.066Z,85.60
2022-11-28T06:50:06.520Z,86.00
2022-11-28T06:52:11.804Z,85.80
2022-11-28T06:54:16.798Z,85.90
2022-11-28T06:56:23.272Z,85.80
2022-11-28T06:58:28.337Z,86.20
2022-11-28T07:00:33.886Z,86.00
2022-11-28T07:02:39.008Z,86.00
2022-11-28T07:04:47.350Z,86.40
2022-11-28T07:06:52.404Z,86.60
2022-11-28T07:08:59.872Z,86.80
2022-11-28T07:11:13.511Z,86.90
2022-11-28T07:13:18.255Z,87.20
2022-11-28T07:15:23.940Z,87.20
2022-11-28T07:17:29.104Z,87.10
2022-11-28T07:19:34.419Z,86.80
2022-11-28T07:21:42.403Z,86.80
2022-11-28T07:23:48.000Z,87.40
2022-11-28T07:25:53.550Z,86.80
2022-11-28T07:27:58.902Z,86.90
2022-11-28T07:30:03.964Z,87.10
2022-11-28T07:32:10.393Z,87.00
2022-11-28T07:34:15.754Z,87.40
2022-11-28T07:36:23.232Z,87.40
2022-11-28T07:38:31.778Z,87.20
2022-11-28T07:40:36.826Z,87.40
2022-11-28T07:42:42.492Z,87.40
2022-11-28T07:44:49.291Z,87.30
2022-11-28T07:46:54.603Z,87.50
2022-11-28T07:49:00.298Z,87.50
2022-11-28T07:51:09.693Z,87.30
2022-11-28T07:53:14.836Z,87.30
2022-11-28T07:55:22.377Z,86.70
2022-11-28T07:57:27.849Z,85.90
2022-11-28T07:59:32.952Z,86.10
2022-11-28T08:01:39.173Z,85.70
2022-11-28T08:03:45.773Z,85.90
2022-11-28T08:05:50.754Z,85.40
2022-11-28T08:07:56.213Z,85.50
2022-11-28T08:10:01.811Z,85.50
2022-11-28T08:12:10.380Z,85.40
2022-11-28T08:14:15.411Z,85.10
2022-11-28T08:16:23.137Z,85.40
2022-11-28T08:18:28.312Z,85.70
2022-11-28T08:20:33.672Z,85.90
2022-11-28T08:22:38.748Z,86.40
2022-11-28T08:24:44.838Z,86.00
2022-11-28T08:26:50.080Z,86.00
2022-11-28T08:28:57.833Z,86.00
2022-11-28T08:31:11.181Z,86.50
2022-11-28T08:33:16.225Z,86.10
2022-11-28T08:35:22.244Z,86.30
2022-11-28T08:37:27.284Z,86.10
2022-11-28T08:39:33.071Z,86.20
2022-11-28T08:41:38.056Z,86.20
2022-11-28T08:43:43.618Z,86.50
2022-11-28T08:45:52.037Z,86.80
2022-11-28T08:47:57.049Z,86.80
2022-11-28T08:50:02.473Z,86.70
2022-11-28T08:52:08.990Z,86.40
2022-11-28T08:54:14.124Z,86.30
2022-11-28T08:56:19.935Z,86.60
2022-11-28T08:58:25.050Z,86.20
2022-11-28T09:00:30.458Z,86.10
2022-11-28T09:02:38.095Z,86.60
2022-11-28T09:04:43.302Z,85.90
2022-11-28T09:06:48.862Z,86.10
2022-11-28T09:08:55.886Z,85.40
2022-11-28T09:11:01.228Z,84.70
2022-11-28T09:13:06.368Z,84.80
2022-11-28T09:15:12.640Z,85.00
2022-11-28T09:17:18.092Z,85.50
2022-11-28T09:19:27.092Z,84.50
2022-11-28T09:21:32.210Z,85.00
2022-11-28T09:23:37.961Z,85.00
2022-11-28T09:25:43.560Z,84.60
2022-11-28T09:27:48.542Z,85.20
2022-11-28T09:29:53.529Z,85.10
2022-11-28T09:31:58.680Z,85.00
2022-11-28T09:34:04.831Z,85.00
2022-11-28T09:36:16.268Z,85.00
2022-11-28T09:38:22.182Z,84.10
2022-11-28T09:40:36.531Z,84.80
2022-11-28T09:42:45.365Z,84.80
2022-11-28T09:44:54.159Z,84.70
2022-11-28T09:47:06.935Z,84.50
2022-11-28T09:49:27.981Z,84.40
2022-11-28T09:51:46.607Z,84.40
2022-11-28T09:54:14.307Z,84.80
2022-11-28T09:56:22.517Z,84.90
2022-11-28T09:58:35.799Z,84.60
2022-11-28T10:00:51.364Z,84.60
2022-11-28T10:03:36.758Z,84.60
2022-11-28T10:05:48.781Z,84.40
2022-11-28T10:08:16.714Z,84.20
2022-11-28T10:10:30.134Z,84.30
2022-11-28T10:12:50.404Z,83.90
2022-11-28T10:15:15.431Z,84.80
2022-11-28T10:17:36.726Z,84.10
2022-11-28T10:19:56.701Z,84.00
2022-11-28T10:22:05.388Z,83.90
2022-11-28T10:24:19.632Z,83.00
2022-11-28T10:26:33.728Z,83.40
2022-11-28T10:28:44.664Z,83.20
2022-11-28T10:30:58.057Z,82.90
2022-11-28T10:33:14.848Z,83.30
2022-11-28T10:35:29.002Z,82.30
2022-11-28T10:37:37.879Z,82.90
2022-11-28T10:39:50.445Z,82.70
2022-11-28T10:42:15.023Z,83.30
2022-11-28T10:44:30.118Z,82.40
2022-11-28T10:46:52.542Z,82.90
2022-11-28T10:49:11.953Z,83.30
2022-11-28T10:51:35.676Z,83.10
2022-11-28T10:53:50.177Z,83.40
2022-11-28T10:56:12.372Z,83.10
2022-11-28T10:58:26.414Z,82.60
2022-11-28T11:00:31.810Z,83.40
2022-11-28T11:02:42.818Z,82.80
2022-11-28T11:04:48.458Z,83.10
2022-11-28T11:07:17.662Z,82.80
2022-11-28T11:09:25.896Z,83.60
2022-11-28T11:11:39.006Z,83.20
2022-11-28T11:14:03.053Z,83.00
2022-11-28T11:16:12.662Z,83.20
2022-11-28T11:18:28.187Z,82.70
2022-11-28T11:20:38.800Z,83.20
2022-11-28T11:22:59.446Z,83.00
2022-11-28T11:25:16.655Z,83.00
2022-11-28T11:27:25.590Z,83.50
2022-11-28T11:29:37.565Z,83.90
2022-11-28T11:31:46.847Z,82.70
2022-11-28T11:33:55.983Z,83.20
2022-11-28T11:36:01.365Z,82.10
2022-11-28T11:38:34.866Z,82.50
2022-11-28T11:40:42.657Z,82.80
2022-11-28T11:42:56.820Z,82.50
2022-11-28T11:45:32.097Z,82.90
2022-11-28T11:47:46.372Z,82.80
2022-11-28T11:49:52.990Z,82.70
2022-11-28T11:52:00.321Z,82.90
2022-11-28T11:54:08.118Z,82.80
2022-11-28T11:56:13.351Z,83.00
2022-11-28T11:58:26.166Z,82.60
2022-11-28T12:00:40.453Z,82.40
2022-11-28T12:02:49.089Z,82.60
2022-11-28T12:05:04.180Z,82.50
2022-11-28T12:07:23.620Z,82.40
2022-11-28T12:09:34.658Z,82.20
2022-11-28T12:11:47.032Z,83.00
2022-11-28T12:13:55.497Z,82.80
2022-11-28T12:16:10.322Z,83.50
2022-11-28T12:18:30.036Z,83.20
2022-11-28T12:20:54.321Z,82.80
2022-11-28T12:23:17.602Z,82.80
2022-11-28T12:25:35.863Z,83.10
2022-11-28T12:27:59.213Z,83.20
2022-11-28T12:30:27.257Z,83.80
2022-11-28T12:32:47.072Z,83.70
2022-11-28T12:35:09.388Z,83.90
2022-11-28T12:37:54.712Z,83.30
2022-11-28T12:40:06.061Z,83.70
2022-11-28T12:42:25.582Z,83.60
2022-11-28T12:44:48.405Z,83.50
2022-11-28T12:47:06.744Z,83.70
2022-11-28T12:49:20.841Z,83.50
2022-11-28T12:51:39.776Z,83.70
2022-11-28T12:54:03.753Z,83.40
2022-11-28T12:56:27.913Z,83.50
2022-11-28T12:58:39.237Z,83.60
2022-11-28T13:00:58.690Z,84.20
2022-11-28T13:03:19.347Z,83.80
2022-11-28T13:05:38.572Z,83.90
2022-11-28T13:07:55.618Z,83.80
2022-11-28T13:10:11.681Z,83.10
2022-11-28T13:12:26.888Z,83.40
2022-11-28T13:14:43.590Z,83.30
2022-11-28T13:16:52.484Z,82.80
2022-11-28T13:19:11.075Z,83.10
2022-11-28T13:21:30.360Z,83.00
2022-11-28T13:23:44.346Z,83.10
2022-11-28T13:25:56.822Z,83.30
2022-11-28T13:28:13.918Z,83.40
2022-11-28T13:30:25.140Z,83.20
2022-11-28T13:32:41.295Z,83.60
2022-11-28T13:34:50.212Z,83.70
2022-11-28T13:39:38.762Z,83.60
2022-11-28T13:42:28.849Z,83.90
2022-11-28T13:44:22.802Z,83.70
2022-11-28T13:46:28.150Z,83.90
2022-11-28T13:49:20.363Z,83.50
2022-11-28T13:51:32.481Z,84.00
2022-11-28T13:53:38.005Z,84.10
2022-11-28T13:55:46.599Z,84.20
2022-11-28T13:57:51.617Z,84.40
2022-11-28T14:00:05.156Z,84.20
2022-11-28T14:02:26.603Z,84.30
2022-11-28T14:04:34.113Z,83.90
2022-11-28T14:06:49.730Z,84.10
2022-11-28T14:09:08.000Z,84.20
2022-11-28T14:11:41.475Z,84.10
2022-11-28T14:14:11.234Z,84.00
2022-11-28T14:16:38.058Z,83.90
2022-11-28T14:19:13.281Z,83.80
2022-11-28T14:21:34.753Z,84.40
2022-11-28T14:23:51.419Z,84.00
2022-11-28T14:25:57.516Z,83.90
2022-11-28T14:28:08.224Z,84.20
2022-11-28T14:30:32.019Z,84.20
2022-11-28T14:32:41.812Z,84.70
2022-11-28T14:34:51.737Z,85.00
2022-11-28T14:37:48.258Z,85.30
2022-11-28T14:39:58.459Z,84.10
2022-11-28T14:43:00.062Z,84.20
2022-11-28T14:45:08.568Z,84.10
2022-11-28T14:47:19.134Z,84.10
2022-11-28T14:49:25.606Z,84.40
2022-11-28T14:52:37.009Z,84.50
2022-11-28T14:54:38.446Z,84.90
2022-11-28T14:56:46.289Z,84.70
2022-11-28T14:58:56.241Z,84.80
2022-11-28T15:01:03.281Z,84.80
2022-11-28T15:03:33.578Z,84.60
2022-11-28T15:05:49.607Z,84.90
2022-11-28T15:08:36.642Z,84.60
2022-11-28T15:10:49.893Z,85.00
2022-11-28T15:13:13.018Z,85.20
2022-11-28T15:15:19.198Z,85.40
2022-11-28T15:17:28.561Z,85.50
2022-11-28T15:19:39.909Z,85.00
2022-11-28T15:21:47.914Z,85.30
2022-11-28T15:23:53.185Z,85.30
2022-11-28T15:26:00.574Z,86.00
2022-11-28T15:28:23.589Z,86.00
2022-11-28T15:30:29.933Z,85.80
2022-11-28T15:32:36.958Z,85.90
2022-11-28T15:34:42.867Z,86.20
2022-11-28T15:36:48.514Z,86.20
2022-11-28T15:38:53.615Z,86.10
2022-11-28T15:41:00.711Z,85.80
2022-11-28T15:43:12.906Z,86.00
2022-11-28T15:45:27.814Z,86.20
2022-11-28T15:47:33.850Z,86.30
2022-11-28T15:49:41.142Z,86.60
2022-11-28T15:51:55.901Z,86.40
2022-11-28T15:54:03.352Z,86.00
2022-11-28T15:56:14.645Z,86.10
2022-11-28T15:58:25.508Z,85.90
2022-11-28T16:00:33.918Z,86.10
2022-11-28T16:02:40.274Z,86.50
2022-11-28T16:04:49.564Z,86.60
2022-11-28T16:06:59.396Z,86.50
2022-11-28T16:09:09.435Z,86.70
2022-11-28T16:11:21.198Z,86.60
2022-11-28T16:13:27.079Z,86.60
2022-11-28T16:15:35.093Z,86.70
2022-11-28T16:17:43.106Z,86.60
2022-11-28T16:19:48.995Z,87.10
2022-11-28T16:21:59.246Z,87.10
2022-11-28T16:24:05.666Z,87.10
2022-11-28T16:26:25.764Z,87.30
2022-11-28T16:28:37.303Z,87.50
2022-11-28T16:30:47.551Z,87.20
2022-11-28T16:32:55.304Z,87.50
2022-11-28T16:35:02.522Z,87.50
2022-11-28T16:37:14.265Z,87.20
2022-11-28T16:39:20.932Z,87.40
2022-11-28T16:41:30.622Z,87.60
2022-11-28T16:43:40.846Z,87.80
2022-11-28T16:45:48.493Z,87.70
2022-11-28T16:47:58.481Z,87.50
2022-11-28T16:50:24.280Z,87.50
2022-11-28T16:52:49.282Z,87.60
2022-11-28T16:57:16.378Z,87.70
2022-11-28T16:59:23.094Z,87.80
2022-11-28T17:01:31.188Z,87.70
2022-11-28T17:03:49.736Z,87.80
2022-11-28T17:05:55.099Z,87.80
2022-11-28T17:08:01.474Z,87.80
2022-11-28T17:10:07.825Z,87.80
2022-11-28T17:12:24.385Z,88.00
2022-11-28T17:14:29.353Z,87.80
2022-11-28T17:16:38.405Z,87.90
2022-11-28T17:18:43.864Z,88.00
2022-11-28T17:20:49.273Z,88.10
2022-11-28T17:22:56.425Z,87.80
2022-11-28T17:25:04.233Z,88.00
2022-11-28T17:27:10.639Z,87.70
2022-11-28T17:29:18.046Z,87.70
2022-11-28T17:31:24.524Z,87.80
2022-11-28T17:33:32.372Z,88.00
2022-11-28T17:35:43.193Z,88.00
2022-11-28T17:37:49.171Z,87.90
2022-11-28T17:40:06.637Z,87.70
2022-11-28T17:42:13.810Z,87.70
2022-11-28T17:44:24.783Z,88.10
2022-11-28T17:46:30.151Z,87.70
2022-11-28T17:48:38.669Z,87.90
2022-11-28T17:50:45.347Z,87.80
2022-11-28T17:52:51.024Z,88.20
2022-11-28T17:55:00.850Z,88.00
2022-11-28T17:57:08.540Z,88.00
2022-11-28T17:59:15.234Z,88.30
2022-11-28T18:01:28.860Z,88.10
2022-11-28T18:03:39.951Z,88.10
2022-11-28T18:05:50.115Z,87.90
2022-11-28T18:07:56.279Z,88.40
2022-11-28T18:10:01.909Z,88.10
2022-11-28T18:12:08.168Z,88.10
2022-11-28T18:14:14.096Z,88.20
2022-11-28T18:16:22.729Z,88.30
2022-11-28T18:18:28.046Z,88.30
2022-11-28T18:20:35.917Z,88.60
2022-11-28T18:22:41.337Z,88.60
2022-11-28T18:24:46.505Z,88.40
2022-11-28T18:26:51.540Z,88.80
2022-11-28T18:28:58.308Z,88.70
2022-11-28T18:31:03.346Z,88.80
2022-11-28T18:33:08.822Z,88.60
2022-11-28T18:35:18.267Z,88.40
2022-11-28T18:37:26.174Z,88.30
2022-11-28T18:39:31.593Z,88.20
2022-11-28T18:41:36.757Z,88.50
2022-11-28T18:43:42.054Z,88.20
2022-11-28T18:45:48.308Z,88.40
2022-11-28T18:47:59.896Z,88.30
2022-11-28T18:50:05.315Z,88.00
2022-11-28T18:52:10.421Z,88.20
2022-11-28T18:54:21.397Z,88.20
2022-11-28T18:56:29.328Z,88.00
2022-11-28T18:58:37.563Z,87.80
2022-11-28T19:00:42.574Z,88.40
2022-11-28T19:02:48.028Z,87.90
2022-11-28T19:04:53.232Z,88.20
2022-11-28T19:07:00.460Z,88.50
2022-11-28T19:09:09.406Z,88.40
2022-11-28T19:11:19.810Z,88.40
2022-11-28T19:13:25.376Z,88.40
2022-11-28T19:15:30.807Z,88.50
2022-11-28T19:17:37.520Z,88.60
2022-11-28T19:19:44.528Z,88.50
2022-11-28T19:21:49.819Z,88.40
2022-11-28T19:23:56.658Z,88.60
2022-11-28T19:26:04.716Z,88.80
2022-11-28T19:28:12.439Z,89.00
2022-11-28T19:30:17.997Z,89.20
2022-11-28T19:32:23.190Z,88.90
2022-11-28T19:34:29.008Z,88.90
2022-11-28T19:36:37.352Z,89.00
2022-11-28T19:38:44.326Z,88.90
2022-11-28T19:40:49.330Z,89.00
2022-11-28T19:42:54.361Z,89.10
2022-11-28T19:45:02.219Z,89.20
2022-11-28T19:47:08.100Z,89.10
2022-11-28T19:49:24.181Z,89.00
2022-11-28T19:51:29.214Z,89.10
2022-11-28T19:53:37.610Z,89.30
2022-11-28T19:55:42.719Z,89.10
2022-11-28T19:57:48.056Z,89.20
2022-11-28T19:59:53.071Z,89.20
2022-11-28T20:02:02.769Z,89.20
2022-11-28T20:04:08.569Z,89.20
2022-11-28T20:06:15.636Z,89.10
2022-11-28T20:08:21.756Z,89.30
2022-11-28T20:10:26.799Z,89.30
2022-11-28T20:12:32.112Z,89.50
2022-11-28T20:14:37.516Z,89.30
2022-11-28T20:16:43.187Z,89.40
2022-11-28T20:18:51.541Z,89.10
2022-11-28T20:20:56.527Z,89.20
2022-11-28T20:23:01.495Z,89.20
2022-11-28T20:25:07.853Z,88.90
2022-11-28T20:27:12.849Z,89.20
2022-11-28T20:29:20.389Z,89.30
2022-11-28T20:31:30.747Z,89.40
2022-11-28T20:33:37.062Z,89.30
2022-11-28T20:35:44.810Z,89.10
2022-11-28T20:37:50.520Z,89.30
2022-11-28T20:39:57.395Z,89.30
2022-11-28T20:42:02.820Z,89.30
2022-11-28T20:44:09.304Z,89.30
2022-11-28T20:46:17.528Z,89.40
2022-11-28T20:48:22.633Z,89.50
2022-11-28T20:50:28.248Z,89.80
2022-11-28T20:52:35.830Z,89.90
2022-11-28T20:54:40.830Z,89.90
2022-11-28T20:57:19.289Z,90.10
2022-11-28T20:59:16.774Z,90.30
2022-11-28T21:01:25.045Z,90.00
2022-11-28T21:03:30.393Z,90.20
2022-11-28T21:05:38.227Z,90.30
2022-11-28T21:07:45.875Z,90.10
2022-11-28T21:09:51.138Z,90.00
2022-11-28T21:11:58.933Z,90.00
2022-11-28T21:14:05.770Z,90.30
2022-11-28T21:16:13.194Z,90.30
2022-11-28T21:18:19.757Z,90.20
2022-11-28T21:20:25.391Z,90.20
2022-11-28T21:22:30.412Z,90.40
2022-11-28T21:24:37.963Z,90.50
2022-11-28T21:26:49.621Z,90.40
2022-11-28T21:29:00.481Z,90.40
2022-11-28T21:31:09.185Z,90.40
2022-11-28T21:33:15.265Z,90.40
2022-11-28T21:35:20.257Z,90.50
2022-11-28T21:37:25.274Z,90.60
2022-11-28T21:39:30.589Z,90.60
2022-11-28T21:41:39.134Z,90.90
2022-11-28T21:43:44.287Z,90.80
2022-11-28T21:45:50.197Z,90.90
2022-11-28T21:47:56.165Z,91.10
2022-11-28T21:50:01.170Z,91.20
2022-11-28T21:52:07.829Z,91.40
2022-11-28T21:54:14.019Z,91.50
2022-11-28T21:56:23.620Z,91.80
2022-11-28T21:58:33.096Z,91.90
2022-11-28T22:00:53.150Z,92.10
2022-11-28T22:03:06.849Z,92.20
2022-11-28T22:05:14.513Z,92.40
2022-11-28T22:07:19.865Z,92.50
2022-11-28T22:09:25.263Z,92.50
2022-11-28T22:11:31.085Z,92.90
2022-11-28T22:13:42.075Z,93.00
2022-11-28T22:15:47.900Z,93.00
2022-11-28T22:17:53.016Z,93.10
2022-11-28T22:19:58.430Z,93.20
2022-11-28T22:22:03.464Z,93.40
2022-11-28T22:24:09.944Z,93.50
2022-11-28T22:26:16.085Z,93.40
2022-11-28T22:28:21.519Z,93.70
2022-11-28T22:30:29.497Z,93.60
2022-11-28T22:32:34.514Z,93.70
2022-11-28T22:34:40.169Z,93.80
2022-11-28T22:36:46.186Z,93.80
2022-11-28T22:38:56.122Z,93.90
2022-11-28T22:41:02.232Z,93.80
2022-11-28T22:43:08.225Z,93.90
2022-11-28T22:45:13.622Z,94.10
2022-11-28T22:47:21.257Z,94.00
2022-11-28T22:49:26.458Z,94.10
2022-11-28T22:51:33.696Z,94.10
2022-11-28T22:53:39.656Z,94.20
2022-11-28T22:55:46.060Z,94.20
2022-11-28T22:57:51.836Z,94.30
2022-11-28T22:59:59.574Z,94.20
2022-11-28T23:02:04.924Z,94.20
2022-11-28T23:04:12.994Z,94.10
2022-11-28T23:06:21.117Z,94.20
2022-11-28T23:08:32.896Z,94.30
2022-11-28T23:10:40.250Z,94.50
2022-11-28T23:12:46.069Z,94.60
2022-11-28T23:14:51.874Z,94.40
2022-11-28T23:16:57.483Z,94.40
2022-11-28T23:19:06.505Z,94.30
2022-11-28T23:21:15.950Z,94.30
2022-11-28T23:23:21.012Z,94.30
2022-11-28T23:25:26.323Z,94.20
2022-11-28T23:27:32.070Z,94.40
2022-11-28T23:29:37.697Z,94.40
2022-11-28T23:31:44.318Z,94.60
2022-11-28T23:33:50.420Z,94.50
2022-11-28T23:35:55.425Z,94.50
2022-11-28T23:38:03.608Z,94.60
2022-11-28T23:40:10.889Z,94.80
2022-11-28T23:42:16.493Z,94.80
2022-11-28T23:44:22.807Z,94.80
2022-11-28T23:46:29.657Z,94.70
2022-11-28T23:48:34.820Z,94.70
2022-11-28T23:50:39.792Z,94.70
2022-11-28T23:52:44.789Z,94.60
2022-11-28T23:54:52.380Z,94.70
2022-11-28T23:56:57.375Z,94.70
2022-11-28T23:59:05.228Z,94.70
